Latest Weather Observations for Munglinup West

IDW60801

Issued at 8:02 am WST Thursday 5 March 2015 (issued every 30 minutes, with the page automatically refreshed every 10 minutes)

About weather observations | Map of weather stations | Latest weather observations for WA | Other Formats
Station Details ID: 012044 Name: MUNGLINUP WEST Lat: -33.55 Lon: 120.70 Height: 220.0 m
Data from the previous 72 hours. | See also: Recent months at Munglinup West
Date/Time
WST
Temp
°C
App
Temp
°C
Dew
Point
Rel
Hum
%
Delta-T
°C
Wind Press
QNH
hPa
Press
MSL
hPa
Rain
since 9 am
mm
Dir
 
Spd
km/h
Gust
km/h
Spd
kts
Gust
kts
05/08:00am 17.7 16.6 14.2 80 2.0 E 13 19 7 10 1028.4 1027.7 0.0
05/07:30am 16.5 15.8 14.2 86 1.3 ENE 11 15 6 8 1028.3 1027.6 0.0
05/07:00am 15.8 15.3 13.8 88 1.1 NE 9 11 5 6 1028.1 1027.4 0.0
05/06:30am 15.3 15.1 13.7 90 0.9 ENE 7 9 4 5 1027.9 1027.2 0.0
05/06:00am 15.2 15.2 13.7 91 0.8 E 6 9 3 5 1027.7 1027.0 0.0
05/05:30am 14.8 14.6 13.7 93 0.6 ENE 7 11 4 6 1027.3 1026.6 0.0
05/05:00am 14.7 14.1 13.6 93 0.6 ENE 9 13 5 7 1027.0 1026.3 0.0
05/04:30am 14.8 14.4 14.0 95 0.5 E 9 11 5 6 1026.6 1025.9 0.0
05/04:00am 14.4 13.9 13.8 96 0.3 E 9 15 5 8 1026.6 1025.9 0.0
05/03:30am 14.5 13.2 13.7 95 0.5 E 13 17 7 9 1026.5 1025.8 0.0
05/03:00am 14.7 13.2 13.1 90 0.9 E 13 17 7 9 1026.5 1025.8 0.0
05/02:30am 14.2 12.9 12.4 89 1.0 E 11 15 6 8 1026.5 1025.8 0.0
05/02:00am 13.9 12.1 12.1 89 1.0 ESE 13 19 7 10 1026.5 1025.8 0.0
05/01:30am 14.0 12.2 12.0 88 1.1 E 13 19 7 10 1026.6 1025.9 0.0
05/01:00am 14.2 12.2 12.6 90 0.9 E 15 20 8 11 1026.8 1026.1 0.0
05/12:30am 13.9 12.2 12.5 91 0.8 E 13 19 7 10 1027.0 1026.3 0.0
05/12:00am 14.2 12.5 12.4 89 1.0 E 13 20 7 11 1027.3 1026.6 0.0
 
Date/Time
WST
Temp
°C
App
Temp
°C
Dew
Point
Rel
Hum
%
Delta-T
°C
Wind Press
QNH
hPa
Press
MSL
hPa
Rain
since 9 am
mm
Dir
 
Spd
km/h
Gust
km/h
Spd
kts
Gust
kts
04/11:30pm 14.5 12.5 12.7 89 1.0 E 15 19 8 10 1027.3 1026.6 0.0
04/11:00pm 14.5 12.4 12.5 88 1.1 E 15 20 8 11 1027.1 1026.4 0.0
04/10:30pm 14.2 12.8 12.2 88 1.1 E 11 15 6 8 1027.5 1026.8 0.0
04/10:00pm 13.9 12.8 11.8 87 1.1 ESE 9 11 5 6 1027.7 1027.0 0.0
04/09:30pm 14.4 12.9 11.9 85 1.4 ESE 11 17 6 9 1027.7 1027.0 0.0
04/09:00pm 14.6 13.1 11.9 84 1.5 ESE 11 17 6 9 1027.6 1026.9 0.0
04/08:30pm 15.1 12.6 12.4 84 1.5 SE 17 20 9 11 1027.5 1026.8 0.0
04/08:00pm 15.5 13.0 12.4 82 1.7 SE 17 22 9 12 1027.3 1026.6 0.0
04/07:30pm 16.0 13.1 12.4 79 2.0 SE 19 24 10 13 1027.0 1026.3 0.0
04/07:00pm 16.6 13.6 12.4 76 2.3 SE 20 26 11 14 1026.7 1026.0 0.0
04/06:30pm 17.5 14.1 12.6 73 2.7 SE 22 30 12 16 1026.3 1025.6 0.0
04/06:00pm 18.8 15.5 12.8 68 3.4 SE 22 28 12 15 1026.0 1025.3 0.0
04/05:30pm 19.9 16.2 12.7 63 4.1 SSE 24 33 13 18 1025.6 1024.9 0.0
04/05:00pm 21.1 17.7 12.5 58 4.9 SE 22 32 12 17 1025.3 1024.5 0.0
04/04:30pm 22.1 18.7 12.6 55 5.5 SE 22 33 12 18 1025.2 1024.4 0.0
04/04:00pm 23.2 19.5 12.8 52 6.0 SSE 24 33 13 18 1024.9 1024.1 0.0
04/03:30pm 24.2 21.3 12.8 49 6.6 SE 20 32 11 17 1024.9 1024.1 0.0
04/03:00pm 23.6 21.2 12.6 50 6.3 SSE 17 30 9 16 1024.6 1023.8 0.0
04/02:30pm 24.2 21.9 13.1 50 6.5 SE 17 26 9 14 1024.6 1023.8 0.0
04/02:00pm 23.1 21.2 13.0 53 5.8 SSE 15 24 8 13 1024.8 1024.0 0.0
04/01:30pm 22.9 21.2 13.7 56 5.4 SSE 15 26 8 14 1025.1 1024.3 0.0
04/01:00pm 24.3 23.7 14.7 55 5.7 SE 11 17 6 9 1025.3 1024.5 0.0
04/12:30pm 22.0 20.2 14.4 62 4.5 SE 17 28 9 15 1025.7 1025.0 0.0
04/12:00pm 21.3 19.2 15.2 68 3.6 SSE 20 28 11 15 1025.9 1025.2 0.0
04/11:30am 19.4 15.9 14.6 74 2.8 SSE 26 35 14 19 1026.2 1025.5 0.0
04/11:00am 22.6 21.3 15.7 65 4.2 SE 17 26 9 14 1026.3 1025.6 0.0
04/10:30am 20.0 18.8 14.1 69 3.4 SE 13 20 7 11 1026.7 1026.0 0.0
04/10:00am 19.6 20.0 14.8 74 2.8 ESE 6 7 3 4 1026.6 1025.9 0.0
04/09:30am 19.9 19.6 14.3 70 3.3 ESE 9 17 5 9 1026.6 1025.9 0.0
04/09:00am 20.0 19.8 14.8 72 3.1 SE 9 15 5 8 1026.5 1025.8 0.2
04/08:30am 19.2 19.2 15.3 78 2.3 ESE 9 15 5 8 1026.6 1025.9 0.2
04/08:00am 18.2 18.8 17.6 96 0.4 SE 11 15 6 8 1026.3 1025.6 0.2
04/07:30am 16.8 17.0 16.8 100 0.0 SE 11 17 6 9 1025.8 1025.1 0.2
04/07:00am 15.9 16.5 15.9 100 0.0 E 7 11 4 6 1025.4 1024.6 0.2
04/06:30am 15.8 16.4 15.8 100 0.0 ESE 7 11 4 6 1025.3 1024.5 0.2
04/06:00am 13.7 13.2 13.7 100 0.0 SE 9 9 5 5 1024.9 1024.1 0.2
04/05:30am 13.7 12.7 13.5 99 0.1 SE 11 11 6 6 1024.3 1023.6 0.2
04/05:00am 14.5 14.2 14.3 99 0.1 SE 9 9 5 5 1024.0 1023.3 0.2
04/04:30am 14.2 14.1 13.9 98 0.2 ESE 7 11 4 6 1023.7 1023.0 0.2
04/04:00am 14.4 13.9 13.9 97 0.3 SE 9 11 5 6 1023.4 1022.7 0.2
04/03:30am 14.9 14.1 14.1 95 0.5 SE 11 13 6 7 1023.2 1022.5 0.2
04/03:00am 15.6 15.4 14.8 95 0.5 SE 9 11 5 6 1023.4 1022.7 0.2
04/02:30am 15.7 15.5 14.7 94 0.6 SE 9 13 5 7 1023.3 1022.6 0.2
04/02:00am 15.7 15.0 14.4 92 0.7 SE 11 15 6 8 1023.4 1022.7 0.2
04/01:30am 16.6 15.8 15.0 90 0.9 SE 13 19 7 10 1023.4 1022.7 0.2
04/01:00am 16.9 15.7 15.1 89 1.0 SE 15 20 8 11 1023.9 1023.2 0.2
04/12:30am 17.0 15.9 15.2 89 1.1 SE 15 20 8 11 1024.1 1023.4 0.2
04/12:00am 17.1 16.0 15.3 89 1.1 SE 15 20 8 11 1024.2 1023.5 0.2
 
Date/Time
WST
Temp
°C
App
Temp
°C
Dew
Point
Rel
Hum
%
Delta-T
°C
Wind Press
QNH
hPa
Press
MSL
hPa
Rain
since 9 am
mm
Dir
 
Spd
km/h
Gust
km/h
Spd
kts
Gust
kts
03/11:30pm 17.0 15.5 15.2 89 1.1 SE 17 22 9 12 1024.0 1023.3 0.2
03/11:00pm 17.1 15.2 15.3 89 1.1 SE 19 26 10 14 1024.1 1023.4 0.2
03/10:30pm 17.2 15.7 15.2 88 1.2 SE 17 22 9 12 1024.2 1023.5 0.2
03/10:00pm 16.8 14.8 15.0 89 1.0 SE 19 24 10 13 1024.2 1023.5 0.2
03/09:30pm 17.4 15.3 15.2 87 1.3 SE 20 30 11 16 1024.5 1023.7 0.2
03/09:00pm 17.4 14.9 15.2 87 1.3 SE 22 30 12 16 1024.3 1023.6 0.2
03/08:30pm 17.3 15.2 15.3 88 1.2 SE 20 26 11 14 1024.1 1023.4 0.2
03/08:00pm 17.3 14.7 14.9 86 1.4 SE 22 33 12 18 1023.8 1023.1 0.2
03/07:30pm 17.6 13.9 15.0 85 1.5 SE 28 33 15 18 1023.5 1022.8 0.2
03/07:00pm 17.9 15.0 15.2 84 1.6 SSE 24 30 13 16 1023.1 1022.4 0.2
03/06:30pm 18.1 15.9 15.0 82 1.8 SSE 20 28 11 15 1022.8 1022.1 0.2
03/06:00pm 18.5 15.2 15.0 80 2.1 SSE 26 32 14 17 1022.4 1021.7 0.2
03/05:30pm 19.2 16.2 14.7 75 2.6 SSE 24 32 13 17 1022.2 1021.5 0.2
03/05:00pm 20.8 17.8 14.7 68 3.6 SSE 24 32 13 17 1022.2 1021.5 0.2
03/04:30pm 22.5 19.8 15.6 65 4.2 S 24 33 13 18 1022.0 1021.3 0.2
03/04:00pm 21.8 19.5 14.7 64 4.2 SSE 20 28 11 15 1021.9 1021.2 0.2
03/03:30pm 22.1 19.6 14.2 61 4.7 SSE 20 30 11 16 1021.7 1021.0 0.2
03/03:00pm 24.4 22.0 14.5 54 5.9 SE 20 32 11 17 1021.5 1020.8 0.2
03/02:30pm 24.6 21.9 14.7 54 6.0 SSE 22 33 12 18 1021.7 1021.0 0.2
03/02:00pm 26.0 24.1 14.1 47 7.1 SSE 17 32 9 17 1021.8 1021.1 0.2
03/01:30pm 25.3 23.4 14.1 50 6.7 SE 17 28 9 15 1021.9 1021.2 0.2
03/01:00pm 26.2 24.7 14.3 48 7.1 SSE 15 32 8 17 1022.0 1021.3 0.2
03/12:30pm 24.3 22.5 13.2 50 6.5 SSE 15 24 8 13 1022.2 1021.5 0.2
03/12:00pm 24.3 22.3 12.6 48 6.8 SE 15 24 8 13 1022.3 1021.6 0.2
03/11:30am 24.3 22.6 12.3 47 6.9 SE 13 22 7 12 1022.4 1021.7 0.2
03/11:00am 23.6 22.2 12.3 49 6.5 SSE 11 19 6 10 1022.8 1022.1 0.2
03/10:30am 25.1 23.5 12.7 46 7.2 ESE 13 20 7 11 1023.0 1022.3 0.0
03/10:00am 23.7 23.4 12.7 50 6.4 SE 6 15 3 8 1023.1 1022.4 0.0
03/09:30am 23.1 22.2 12.7 52 6.0 E 9 17 5 9 1023.1 1022.4 0.0
03/09:00am 22.2 21.8 13.0 56 5.3 E 7 13 4 7 1023.2 1022.5 0.8
03/08:30am 20.8 20.4 14.0 65 4.0 NE 9 15 5 8 1023.1 1022.4 0.8
03/08:00am 19.8 18.9 14.8 73 2.9 ENE 13 17 7 9 1023.1 1022.4 0.8
03/07:30am 18.1 17.6 14.8 81 1.9 ENE 11 17 6 9 1023.1 1022.4 0.8
03/07:00am 15.9 16.2 14.4 91 0.9 ESE 6 9 3 5 1023.0 1022.3 0.8
03/06:30am 14.7 14.8 13.9 95 0.5 SE 6 7 3 4 1022.8 1022.1 0.8
03/06:00am 15.0 15.0 14.2 95 0.5 E 7 11 4 6 1022.4 1021.7 0.8
03/05:30am 14.8 14.7 14.0 95 0.5 E 7 9 4 5 1022.1 1021.4 0.8
03/05:00am 14.6 14.5 13.8 95 0.5 E 7 9 4 5 1021.8 1021.1 0.8
03/04:30am 14.8 14.7 14.0 95 0.5 E 7 9 4 5 1021.4 1020.6 0.8
03/04:00am 15.0 14.6 14.2 95 0.5 E 9 11 5 6 1021.3 1020.5 0.8
03/03:30am 15.1 14.5 14.5 96 0.3 ENE 11 15 6 8 1021.3 1020.5 0.8
03/03:00am 14.9 14.6 14.4 97 0.3 E 9 13 5 7 1021.3 1020.5 0.8
03/02:30am 14.7 14.0 14.2 97 0.3 E 11 15 6 8 1021.2 1020.4 0.8
03/02:00am 15.0 14.0 14.5 97 0.3 E 13 17 7 9 1021.2 1020.4 0.8
03/01:30am 15.3 14.4 14.8 97 0.3 E 13 17 7 9 1021.2 1020.4 0.8
03/01:00am 15.6 14.4 15.0 96 0.3 ESE 15 19 8 10 1021.3 1020.5 0.8
03/12:30am 15.5 14.5 14.7 95 0.5 ESE 13 19 7 10 1021.3 1020.5 0.8
03/12:00am 15.4 14.7 14.4 94 0.6 ESE 11 15 6 8 1021.4 1020.6 0.8
 
Date/Time
WST
Temp
°C
App
Temp
°C
Dew
Point
Rel
Hum
%
Delta-T
°C
Wind Press
QNH
hPa
Press
MSL
hPa
Rain
since 9 am
mm
Dir
 
Spd
km/h
Gust
km/h
Spd
kts
Gust
kts
02/11:30pm 16.1 15.6 15.0 93 0.6 SE 11 13 6 7 1021.3 1020.5 0.8
02/11:00pm 16.6 15.5 15.3 92 0.8 SE 15 19 8 10 1021.4 1020.6 0.8
02/10:30pm 16.7 15.3 15.6 93 0.6 SE 17 22 9 12 1021.4 1020.6 0.8
02/10:00pm 17.0 16.0 15.5 91 0.9 SSE 15 20 8 11 1021.5 1020.8 0.8
02/09:30pm 17.0 16.1 15.9 93 0.7 SSE 15 20 8 11 1021.5 1020.8 0.8
02/09:00pm 16.9 16.0 15.8 93 0.7 SSE 15 20 8 11 1021.3 1020.5 0.8
02/08:30pm 16.8 15.1 15.7 93 0.7 SE 19 24 10 13 1020.7 1019.9 0.8
02/08:00pm 16.7 14.9 15.6 93 0.6 SE 19 24 10 13 1020.3 1019.5 0.8
02/07:30pm 16.7 14.7 15.6 93 0.6 SSE 20 28 11 15 1019.6 1018.9 0.8
02/07:00pm 16.9 15.2 15.8 93 0.7 SSE 19 28 10 15 1019.1 1018.4 0.8
02/06:30pm 17.1 15.3 16.0 93 0.7 SSE 20 28 11 15 1018.5 1017.8 0.8
02/06:00pm 17.4 15.7 15.7 90 1.0 SSE 19 28 10 15 1018.2 1017.5 0.8
02/05:30pm 17.5 15.0 16.2 92 0.8 SSE 24 33 13 18 1018.1 1017.4 0.8
02/05:00pm 17.4 14.6 16.3 93 0.7 SE 26 33 14 18 1017.8 1017.1 0.8
02/04:30pm 18.2 15.0 16.2 88 1.2 SSE 28 37 15 20 1017.8 1017.1 0.6
02/04:00pm 18.7 15.9 15.4 81 2.0 SSE 24 32 13 17 1017.9 1017.2 0.6
02/03:30pm 18.8 15.7 15.7 82 1.9 SSE 26 37 14 20 1017.5 1016.8 0.6
02/03:00pm 20.0 16.2 15.8 77 2.5 SE 30 39 16 21 1017.2 1016.4 0.6
02/02:30pm 20.4 16.8 15.2 72 3.1 SSE 28 37 15 20 1017.2 1016.4 0.6
02/02:00pm 19.9 16.5 15.7 77 2.5 SSE 28 37 15 20 1017.4 1016.6 0.6
02/01:30pm 19.8 16.4 15.9 78 2.3 SSE 28 39 15 21 1017.3 1016.5 0.6
02/01:00pm 20.6 17.4 16.2 76 2.7 SSE 28 37 15 20 1017.3 1016.5 0.6
02/12:30pm 19.6 16.7 16.1 80 2.1 SSE 26 35 14 19 1017.2 1016.4 0.6
02/12:00pm 19.3 16.2 17.6 90 1.0 SE 30 37 16 20 1017.3 1016.5 0.6
02/11:30am 17.7 14.9 17.4 98 0.2 SE 28 37 15 20 1017.4 1016.6 0.6
02/11:00am 17.6 15.3 16.6 94 0.6 SSE 24 33 13 18 1017.7 1017.0 0.2
02/10:30am 19.2 16.5 16.6 85 1.6 SE 26 35 14 19 1017.6 1016.9 0.0
02/10:00am 21.1 18.7 15.4 70 3.4 ESE 22 32 12 17 1017.4 1016.6 0.0
02/09:30am 20.9 18.6 15.7 72 3.1 SE 22 30 12 16 1017.3 1016.5 0.0
02/09:00am 20.2 17.4 15.4 74 2.9 ESE 24 33 13 18 1017.2 1016.4 0.4
02/08:30am 19.1 17.1 15.6 80 2.1 SE 20 28 11 15 1017.0 1016.2 0.2

Other Formats:

Comma delimited format used in spreadsheet applications
http://www.bom.gov.au/fwo/IDW60801/IDW60801.95644.axf

JavaScript Object Notation format (JSON) in row-major order
http://www.bom.gov.au/fwo/IDW60801/IDW60801.95644.json